Time;durP1;ratioP1;P1;durP2;ratioP2;P2;SDS_P1;SDS_P2;PMS_P1;PMS_P2;Temp;Humidity;BMP_temperature;BMP_pressure;BME280_temperature;BME280_humidity;BME280_pressure;Samples;Min_cycle;Max_cycle;Signal;HPM_P1;HPM_P2
2023/01/08 00:01:14;;;;;;;16.88;3.38;;;;;;;6.88;84.31;97716.34;5080470;28;20044;-46
2023/01/08 00:03:41;;;;;;;9.88;2.17;;;;;;;6.87;84.38;97723.81;5082137;28;20060;-47
2023/01/08 00:06:14;;;;;;;12.45;3.60;;;;;;;6.87;84.31;97728.50;5077126;28;20043;-49
2023/01/08 00:08:41;;;;;;;15.52;3.15;;;;;;;6.86;84.39;97711.22;5081854;28;20516;-47
2023/01/08 00:11:09;;;;;;;12.10;2.63;;;;;;;6.86;84.14;97713.22;5072887;28;20041;-46
2023/01/08 00:13:36;;;;;;;16.55;3.70;;;;;;;6.84;84.27;97721.84;5078174;28;20075;-51
2023/01/08 00:16:09;;;;;;;15.43;3.63;;;;;;;6.84;84.13;97721.03;5085941;28;20089;-50
2023/01/08 00:18:36;;;;;;;11.88;3.00;;;;;;;6.82;84.35;97742.66;5087229;28;20294;-51
2023/01/08 00:21:03;;;;;;;13.93;3.92;;;;;;;6.82;84.25;97748.16;5087375;28;20139;-47
2023/01/08 00:23:31;;;;;;;19.70;4.90;;;;;;;6.80;84.44;97721.06;5087600;28;20074;-51
2023/01/08 00:26:02;;;;;;;23.90;3.92;;;;;;;6.81;84.15;97725.38;5069353;28;20064;-47
2023/01/08 00:28:29;;;;;;;13.37;3.30;;;;;;;6.80;84.17;97717.53;5087296;28;20068;-49
2023/01/08 00:30:57;;;;;;;15.35;4.85;;;;;;;6.80;84.09;97728.53;5069189;28;20044;-47
2023/01/08 00:33:24;;;;;;;16.30;3.20;;;;;;;6.80;84.05;97725.78;5082842;28;20576;-47
2023/01/08 00:35:53;;;;;;;16.95;3.78;;;;;;;6.81;83.97;97757.56;5086610;28;20051;-52
2023/01/08 00:38:24;;;;;;;18.98;3.58;;;;;;;6.80;83.85;97748.56;5080388;28;20143;-50
2023/01/08 00:40:51;;;;;;;18.17;4.25;;;;;;;6.81;83.97;97752.06;5086954;28;20379;-46
2023/01/08 00:43:18;;;;;;;16.80;2.60;;;;;;;6.81;83.77;97749.31;5087157;28;20064;-51
2023/01/08 00:45:45;;;;;;;14.07;2.95;;;;;;;6.82;83.46;97772.91;5086905;28;20032;-46
2023/01/08 00:48:12;;;;;;;18.75;3.90;;;;;;;6.83;83.48;97766.22;5087053;28;20053;-48
2023/01/08 00:50:38;;;;;;;16.92;3.83;;;;;;;6.80;83.39;97756.00;5081359;28;20048;-46
2023/01/08 00:53:05;;;;;;;15.60;2.75;;;;;;;6.81;83.49;97768.56;5086814;28;20130;-45
2023/01/08 00:55:32;;;;;;;19.88;4.82;;;;;;;6.79;83.24;97777.22;5087250;28;20062;-52
2023/01/08 00:57:58;;;;;;;14.13;3.97;;;;;;;6.78;83.33;97761.88;5087320;28;20170;-47
2023/01/08 01:00:25;;;;;;;10.70;2.72;;;;;;;6.77;83.17;97760.34;5086900;28;20464;-49
2023/01/08 01:02:52;;;;;;;17.48;4.32;;;;;;;6.79;83.17;97768.19;5048776;28;20142;-46
2023/01/08 01:05:19;;;;;;;10.18;2.60;;;;;;;6.79;83.49;97770.94;5068696;28;20098;-45
2023/01/08 01:07:46;;;;;;;13.65;3.65;;;;;;;6.80;83.28;97753.28;5086049;28;20097;-49
2023/01/08 01:10:15;;;;;;;10.43;2.70;;;;;;;6.77;83.34;97768.59;5079128;28;20543;-46
2023/01/08 01:12:43;;;;;;;14.27;2.78;;;;;;;6.77;83.24;97760.34;5068602;28;20040;-48
2023/01/08 01:15:13;;;;;;;17.98;3.83;;;;;;;6.77;83.26;97773.28;5086688;28;20055;-47
2023/01/08 01:17:42;;;;;;;17.17;2.83;;;;;;;6.75;83.20;97766.22;5086508;28;20128;-50
2023/01/08 01:20:12;;;;;;;18.85;2.72;;;;;;;6.76;83.21;97772.50;5086882;28;20055;-51
2023/01/08 01:22:38;;;;;;;14.55;3.80;;;;;;;6.77;83.14;97773.28;5086259;28;20119;-46
2023/01/08 01:25:06;;;;;;;25.83;6.22;;;;;;;6.76;83.28;97778.00;5086219;28;20045;-45
2023/01/08 01:27:34;;;;;;;19.92;3.50;;;;;;;6.77;83.14;97754.06;5086372;28;20757;-45
2023/01/08 01:30:01;;;;;;;22.05;3.95;;;;;;;6.78;83.14;97766.63;5086209;28;20112;-46
2023/01/08 01:32:28;;;;;;;12.40;3.35;;;;;;;6.77;83.20;97759.53;5087222;28;20044;-45
2023/01/08 01:34:55;;;;;;;12.40;3.08;;;;;;;6.75;83.16;97768.97;5085598;28;20482;-48
2023/01/08 01:37:21;;;;;;;15.85;2.83;;;;;;;6.73;83.25;97787.03;5086416;28;20549;-46
2023/01/08 01:39:48;;;;;;;16.13;3.75;;;;;;;6.70;83.20;97774.84;5077996;28;20743;-45
2023/01/08 01:45:24;;;;;;;13.23;3.17;;;;;;;6.67;83.15;97775.63;5085210;28;20075;-46
2023/01/08 01:48:01;;;;;;;19.10;3.83;;;;;;;6.67;83.44;97775.63;5086224;28;20499;-45
2023/01/08 01:50:50;;;;;;;18.33;3.35;;;;;;;6.66;83.22;97778.78;5086599;28;20388;-49
2023/01/08 01:53:30;;;;;;;20.05;5.85;;;;;;;6.63;83.28;97772.09;5074198;28;20097;-47
2023/01/08 01:55:58;;;;;;;20.05;3.47;;;;;;;6.60;83.24;97774.84;5085868;28;20485;-47
2023/01/08 01:58:27;;;;;;;16.38;3.50;;;;;;;6.59;83.19;97787.78;5078529;28;20580;-50
2023/01/08 02:00:56;;;;;;;21.60;4.20;;;;;;;6.55;83.32;97780.72;5082638;28;20071;-49
2023/01/08 02:03:26;;;;;;;18.63;3.40;;;;;;;6.54;83.19;97771.69;5082371;28;20072;-48
2023/01/08 02:06:19;;;;;;;17.85;3.67;;;;;;;6.53;83.54;97788.59;5082419;28;20105;-47
2023/01/08 02:09:05;;;;;;;19.27;3.53;;;;;;;6.52;83.50;97793.28;5078943;28;20055;-50
2023/01/08 02:12:17;;;;;;;11.50;3.22;;;;;;;6.50;83.41;97790.16;5085476;28;20046;-48
2023/01/08 02:15:03;;;;;;;19.83;4.07;;;;;;;6.51;83.53;97793.69;5079429;28;20032;-47
2023/01/08 02:17:45;;;;;;;32.03;5.50;;;;;;;6.48;83.25;97789.75;5083607;28;20041;-46
2023/01/08 02:20:22;;;;;;;17.30;3.73;;;;;;;6.47;83.11;97801.91;5087519;28;20051;-46
2023/01/08 02:23:19;;;;;;;17.35;3.58;;;;;;;6.48;83.23;97795.25;5087202;28;20913;-46
2023/01/08 02:26:06;;;;;;;16.13;4.03;;;;;;;6.48;83.09;97805.47;5078832;28;20042;-50
2023/01/08 02:28:40;;;;;;;22.85;3.92;;;;;;;6.44;83.31;97788.94;5087214;28;20046;-45
2023/01/08 02:31:08;;;;;;;21.40;4.32;;;;;;;6.42;83.11;97782.28;5086658;28;20048;-49
2023/01/08 02:33:35;;;;;;;15.40;3.30;;;;;;;6.39;83.04;97785.78;5088975;28;20039;-46
2023/01/08 02:36:23;;;;;;;24.33;4.20;;;;;;;6.37;83.07;97779.91;5089227;28;20050;-53
2023/01/08 02:39:02;;;;;;;16.80;3.15;;;;;;;6.35;83.26;97774.81;5079002;28;20426;-46
2023/01/08 02:41:52;;;;;;;20.83;4.13;;;;;;;6.35;83.13;97774.81;5089105;28;20043;-45
2023/01/08 02:44:47;;;;;;;14.75;3.85;;;;;;;6.34;83.03;97767.75;5089389;28;20052;-49
2023/01/08 02:47:38;;;;;;;23.55;4.25;;;;;;;6.33;82.88;97763.41;5081126;28;20085;-46
2023/01/08 02:50:23;;;;;;;21.20;3.53;;;;;;;6.32;82.79;97766.56;5077501;28;20126;-48
2023/01/08 02:53:13;;;;;;;18.52;3.58;;;;;;;6.29;82.96;97748.91;5088519;28;20131;-49
2023/01/08 02:55:43;;;;;;;16.73;3.72;;;;;;;6.27;82.96;97748.50;5088816;28;20059;-49
2023/01/08 02:58:11;;;;;;;23.25;4.95;;;;;;;6.26;82.75;97760.66;5068657;28;20056;-45
2023/01/08 03:00:41;;;;;;;18.65;4.82;;;;;;;6.25;82.77;97761.06;5116975;22;20834;-51
2023/01/08 03:03:12;;;;;;;19.75;3.92;;;;;;;6.22;82.59;97759.88;5046325;28;20049;-49
2023/01/08 03:05:42;;;;;;;11.85;3.10;;;;;;;6.20;82.73;97751.22;5038214;28;20036;-43
2023/01/08 03:08:11;;;;;;;16.20;3.50;;;;;;;6.18;82.69;97753.56;5039924;28;20044;-45
2023/01/08 03:10:40;;;;;;;25.15;3.92;;;;;;;6.16;82.92;97750.44;5046001;28;20144;-47
2023/01/08 03:13:14;;;;;;;24.25;3.97;;;;;;;6.13;82.94;97752.00;5048267;28;20520;-44
2023/01/08 03:15:52;;;;;;;16.58;4.00;;;;;;;6.11;82.81;97748.06;5043428;28;20047;-44
2023/01/08 03:18:25;;;;;;;21.80;3.88;;;;;;;6.07;82.79;97742.56;5042646;28;20103;-44
2023/01/08 03:20:52;;;;;;;15.90;4.70;;;;;;;6.05;82.61;97738.63;5039668;28;20072;-46
2023/01/08 03:23:21;;;;;;;24.13;5.03;;;;;;;6.04;82.40;97739.78;5047536;28;20413;-43
2023/01/08 03:25:48;;;;;;;16.80;3.80;;;;;;;6.05;82.55;97733.13;5043957;28;20044;-49
2023/01/08 03:28:24;;;;;;;26.30;5.25;;;;;;;6.05;82.52;97733.94;5031273;28;20042;-52
2023/01/08 03:30:52;;;;;;;15.98;3.63;;;;;;;6.03;82.62;97741.78;5045417;28;20047;-46
2023/01/08 03:33:23;;;;;;;16.20;3.30;;;;;;;6.02;82.44;97742.94;5044371;28;20053;-51
2023/01/08 03:35:52;;;;;;;20.13;4.15;;;;;;;6.03;82.17;97741.78;5042061;28;20114;-51
2023/01/08 03:38:34;;;;;;;22.63;4.95;;;;;;;6.05;81.80;97735.88;5047381;28;20049;-49
2023/01/08 03:41:09;;;;;;;17.13;4.10;;;;;;;6.05;81.64;97738.63;5047224;28;20057;-50
2023/01/08 03:43:37;;;;;;;26.45;4.60;;;;;;;6.05;81.35;97744.91;5049388;28;20064;-48
2023/01/08 03:46:12;;;;;;;13.43;4.13;;;;;;;6.06;80.96;97740.22;5048262;28;20049;-46
2023/01/08 03:48:40;;;;;;;26.67;5.47;;;;;;;6.09;81.02;97755.88;5039030;28;20152;-52
2023/01/08 03:51:08;;;;;;;25.85;4.60;;;;;;;6.10;80.67;97749.22;5047829;28;20532;-43
2023/01/08 03:53:35;;;;;;;17.13;4.30;;;;;;;6.08;80.61;97754.34;5047820;28;20048;-49
2023/01/08 03:56:02;;;;;;;17.38;4.13;;;;;;;6.07;80.49;97755.50;5043006;28;20048;-47
2023/01/08 03:58:29;;;;;;;18.25;4.13;;;;;;;6.06;80.18;97749.22;5043256;28;20055;-47
2023/01/08 04:00:56;;;;;;;16.92;3.33;;;;;;;6.05;80.04;97733.13;5036468;28;20057;-47
2023/01/08 04:03:23;;;;;;;31.67;5.40;;;;;;;6.06;80.30;97724.50;5039248;28;20057;-45
2023/01/08 04:05:50;;;;;;;20.55;5.18;;;;;;;6.07;80.21;97741.75;5046088;28;20140;-45
2023/01/08 04:08:17;;;;;;;22.48;4.47;;;;;;;6.05;79.87;97733.13;5041752;28;20041;-47
2023/01/08 04:10:43;;;;;;;18.38;3.30;;;;;;;6.03;80.01;97725.31;5044663;28;20055;-50
2023/01/08 04:13:10;;;;;;;15.80;4.82;;;;;;;6.02;79.98;97707.25;5034678;28;20130;-48
2023/01/08 04:15:37;;;;;;;17.30;3.88;;;;;;;6.01;79.97;97715.88;5045918;28;20041;-45
2023/01/08 04:18:04;;;;;;;19.67;3.60;;;;;;;5.99;80.09;97712.72;5046749;28;20049;-48
2023/01/08 04:20:30;;;;;;;17.45;4.22;;;;;;;5.96;80.04;97724.47;5044474;28;20139;-49
2023/01/08 04:22:57;;;;;;;20.83;4.75;;;;;;;5.94;80.04;97740.56;5045151;28;20049;-51
2023/01/08 04:25:24;;;;;;;25.10;4.65;;;;;;;5.95;80.13;97709.19;5041687;28;20048;-45
2023/01/08 04:27:51;;;;;;;22.13;4.68;;;;;;;5.96;80.05;97713.47;5032108;28;20135;-50
2023/01/08 04:30:17;;;;;;;20.85;3.95;;;;;;;5.97;79.85;97723.31;5042782;28;20124;-44
2023/01/08 04:32:44;;;;;;;16.95;4.00;;;;;;;5.95;80.01;97729.19;5040272;28;20133;-45
2023/01/08 04:35:11;;;;;;;20.00;4.15;;;;;;;5.96;79.95;97740.94;5033190;28;20041;-46
2023/01/08 04:37:38;;;;;;;25.30;6.25;;;;;;;5.96;79.89;97732.72;5033172;28;20044;-47
2023/01/08 04:40:05;;;;;;;28.80;4.75;;;;;;;5.97;79.76;97726.06;5043645;28;20135;-47
2023/01/08 04:42:32;;;;;;;19.40;4.90;;;;;;;5.96;79.96;97725.25;5035521;28;20136;-46
2023/01/08 04:44:58;;;;;;;21.15;3.60;;;;;;;5.99;79.73;97729.19;5037564;28;20099;-45
2023/01/08 04:47:25;;;;;;;15.05;3.83;;;;;;;6.00;79.45;97723.31;5039114;28;20046;-46
2023/01/08 04:49:52;;;;;;;16.77;5.85;;;;;;;6.00;79.81;97736.25;5028725;28;20059;-49
2023/01/08 04:52:18;;;;;;;25.35;5.10;;;;;;;5.97;79.55;97726.84;5040268;28;20418;-44
2023/01/08 04:54:45;;;;;;;19.92;4.97;;;;;;;5.96;79.62;97735.44;5039599;28;20661;-50
2023/01/08 04:57:12;;;;;;;19.48;4.15;;;;;;;5.95;79.82;97726.44;5039229;28;20049;-44
2023/01/08 04:59:39;;;;;;;24.88;4.82;;;;;;;5.96;79.80;97727.22;5032229;28;20397;-48
2023/01/08 05:02:05;;;;;;;21.55;3.78;;;;;;;5.95;79.62;97720.97;5041240;28;20292;-47
2023/01/08 05:04:33;;;;;;;26.50;4.20;;;;;;;5.97;79.67;97720.56;5032422;28;20134;-48
2023/01/08 05:06:59;;;;;;;24.38;5.72;;;;;;;5.99;79.59;97712.72;5039162;28;20422;-49
2023/01/08 05:09:26;;;;;;;24.33;4.57;;;;;;;5.98;79.89;97708.41;5037679;28;20517;-46
2023/01/08 05:11:53;;;;;;;26.90;4.50;;;;;;;6.00;79.53;97689.59;5035148;28;20054;-45
2023/01/08 05:14:20;;;;;;;17.67;3.42;;;;;;;6.02;79.93;97684.47;5039596;28;20337;-44
2023/01/08 05:16:46;;;;;;;24.55;4.30;;;;;;;6.04;79.58;97676.63;5037247;28;20139;-44
2023/01/08 05:19:13;;;;;;;25.13;4.90;;;;;;;6.08;79.64;97653.50;5046006;28;20073;-46
2023/01/08 05:21:40;;;;;;;26.00;4.68;;;;;;;6.11;79.60;97649.19;5038853;28;20350;-48
2023/01/08 05:24:08;;;;;;;27.30;5.20;;;;;;;6.12;79.37;97659.00;5042595;28;20357;-46
2023/01/08 05:26:35;;;;;;;22.38;6.82;;;;;;;6.15;79.42;97666.44;5043816;28;20473;-50
2023/01/08 05:29:02;;;;;;;21.88;5.28;;;;;;;6.17;79.56;97646.84;5046099;28;20499;-50
2023/01/08 05:31:28;;;;;;;30.77;4.97;;;;;;;6.19;79.47;97669.22;5046394;28;20066;-44
2023/01/08 05:33:57;;;;;;;29.98;5.50;;;;;;;6.20;79.93;97679.78;5046111;28;20098;-46
2023/01/08 05:36:24;;;;;;;23.15;4.05;;;;;;;6.21;79.70;97670.41;5039216;28;20118;-47
2023/01/08 05:38:51;;;;;;;29.45;6.05;;;;;;;6.23;79.81;97667.25;5032924;28;20556;-49
2023/01/08 05:41:18;;;;;;;24.27;5.32;;;;;;;6.25;79.82;97651.94;5040547;28;20139;-45
2023/01/08 05:43:44;;;;;;;23.80;4.63;;;;;;;6.27;79.96;97674.34;5029562;28;20488;-48
2023/01/08 05:46:11;;;;;;;19.23;3.60;;;;;;;6.30;79.74;97684.50;5035113;28;20135;-50
2023/01/08 05:48:38;;;;;;;32.08;6.13;;;;;;;6.34;79.97;97673.53;5046494;28;20483;-46
2023/01/08 05:51:05;;;;;;;22.05;4.15;;;;;;;6.36;79.92;97677.47;5043346;28;20128;-46
2023/01/08 05:53:32;;;;;;;20.92;4.05;;;;;;;6.38;79.77;97679.84;5042803;28;20496;-44
2023/01/08 05:56:06;;;;;;;21.00;4.25;;;;;;;6.35;79.86;97691.59;5043098;28;20037;-43
2023/01/08 05:58:35;;;;;;;25.83;5.57;;;;;;;6.33;80.09;97670.00;5041402;28;20053;-50
2023/01/08 06:01:05;;;;;;;24.20;4.55;;;;;;;6.30;80.06;97675.50;5046760;28;20798;-46
2023/01/08 06:03:32;;;;;;;23.02;5.55;;;;;;;6.26;80.08;97683.75;5047814;28;20051;-45
2023/01/08 06:06:01;;;;;;;34.35;5.53;;;;;;;6.23;80.56;97668.03;5049078;28;20135;-46
2023/01/08 06:08:29;;;;;;;23.75;3.85;;;;;;;6.19;80.47;97650.78;5040412;28;20131;-47
2023/01/08 06:11:04;;;;;;;21.50;4.50;;;;;;;6.17;80.46;97653.09;5047915;28;20099;-45
2023/01/08 06:13:32;;;;;;;14.30;5.20;;;;;;;6.14;80.67;97656.66;5040019;28;20045;-48
2023/01/08 06:15:59;;;;;;;17.13;4.30;;;;;;;6.12;80.63;97645.25;5046862;28;20049;-45
2023/01/08 06:18:27;;;;;;;14.85;3.75;;;;;;;6.08;80.78;97633.50;5033407;28;20040;-44
2023/01/08 06:20:54;;;;;;;19.88;3.55;;;;;;;6.06;80.76;97644.09;5042234;28;20107;-45
2023/01/08 06:23:21;;;;;;;14.23;3.30;;;;;;;6.05;80.75;97640.56;5034841;28;20110;-47
2023/01/08 06:25:52;;;;;;;11.70;3.83;;;;;;;6.03;80.54;97636.63;5038575;28;20123;-52
2023/01/08 06:28:19;;;;;;;13.07;4.18;;;;;;;6.01;80.45;97648.00;5034732;28;20138;-49
2023/01/08 06:30:46;;;;;;;19.33;3.05;;;;;;;6.01;80.50;97645.25;5044012;28;20052;-49
2023/01/08 06:33:13;;;;;;;10.60;2.25;;;;;;;6.00;80.58;97653.88;5048101;28;20076;-44
2023/01/08 06:35:41;;;;;;;9.88;2.58;;;;;;;5.98;80.50;97639.78;5049238;28;20064;-45
2023/01/08 06:38:08;;;;;;;12.98;2.42;;;;;;;5.97;80.44;97632.69;5035677;28;20084;-45
2023/01/08 06:40:35;;;;;;;8.75;2.72;;;;;;;5.96;80.59;97614.63;5048489;28;20052;-45
2023/01/08 06:43:04;;;;;;;11.95;3.90;;;;;;;5.94;80.75;97626.03;5048612;28;20052;-45
2023/01/08 06:45:32;;;;;;;12.20;2.13;;;;;;;5.92;80.57;97627.59;5048952;28;20059;-48
2023/01/08 06:48:06;;;;;;;9.90;2.60;;;;;;;5.91;80.48;97629.53;5048812;28;20049;-53
2023/01/08 06:50:33;;;;;;;9.50;2.28;;;;;;;5.91;80.36;97629.53;5045677;28;20106;-51
2023/01/08 06:53:00;;;;;;;11.02;1.90;;;;;;;5.89;80.43;97637.41;5049417;28;20045;-53
2023/01/08 06:55:27;;;;;;;11.23;2.13;;;;;;;5.89;80.52;97625.63;5047886;28;20583;-50
2023/01/08 06:57:54;;;;;;;10.07;2.22;;;;;;;5.87;80.55;97626.03;5048871;28;20509;-48
2023/01/08 07:00:22;;;;;;;14.82;4.10;;;;;;;5.86;80.47;97624.44;5048839;28;20140;-51
2023/01/08 07:02:53;;;;;;;7.30;2.42;;;;;;;5.87;80.58;97633.47;5042796;28;20059;-48
2023/01/08 07:05:21;;;;;;;3.60;1.30;;;;;;;5.87;80.63;97636.22;5047327;28;20053;-49
2023/01/08 07:07:48;;;;;;;7.43;1.98;;;;;;;5.85;80.31;97631.09;5049177;28;20119;-51
2023/01/08 07:10:14;;;;;;;13.63;2.65;;;;;;;5.85;80.69;97642.06;5037001;28;20049;-46
2023/01/08 07:12:44;;;;;;;7.97;1.88;;;;;;;5.83;80.65;97643.63;5041617;28;20052;-45
2023/01/08 07:15:10;;;;;;;11.48;2.25;;;;;;;5.81;80.67;97635.00;5033263;28;20395;-43
2023/01/08 07:17:37;;;;;;;13.73;2.08;;;;;;;5.80;80.64;97627.94;5041555;28;20111;-49
2023/01/08 07:20:05;;;;;;;12.68;2.33;;;;;;;5.80;80.94;97633.44;5037821;28;20131;-44
2023/01/08 07:22:32;;;;;;;12.63;2.45;;;;;;;5.80;80.82;97625.19;5046201;28;20518;-44
2023/01/08 07:24:58;;;;;;;7.78;2.28;;;;;;;5.79;80.75;97631.84;5046849;28;20057;-47
2023/01/08 07:27:25;;;;;;;10.13;3.25;;;;;;;5.76;81.18;97624.38;5029588;28;20053;-44
2023/01/08 07:29:54;;;;;;;13.02;2.10;;;;;;;5.77;81.09;97629.47;5048494;28;20158;-45
2023/01/08 07:32:21;;;;;;;8.90;2.58;;;;;;;5.78;81.32;97627.53;5045758;28;20593;-46
2023/01/08 07:34:48;;;;;;;13.18;1.85;;;;;;;5.76;81.16;97633.41;5046117;28;20059;-44
2023/01/08 07:37:15;;;;;;;12.98;3.05;;;;;;;5.77;81.08;97634.22;5048150;28;20756;-48
2023/01/08 07:39:42;;;;;;;13.57;2.10;;;;;;;5.76;81.44;97627.94;5047952;28;20037;-45
2023/01/08 07:42:08;;;;;;;13.38;2.10;;;;;;;5.74;81.26;97615.78;5041656;28;20059;-51
2023/01/08 07:44:35;;;;;;;20.00;2.38;;;;;;;5.72;81.57;97621.63;5047882;28;20041;-45
2023/01/08 07:47:02;;;;;;;15.38;3.25;;;;;;;5.73;81.33;97616.94;5043633;28;20067;-50
2023/01/08 07:49:29;;;;;;;12.63;2.47;;;;;;;5.70;81.39;97606.72;5039702;28;20072;-47
2023/01/08 07:51:55;;;;;;;8.63;2.38;;;;;;;5.69;81.68;97616.16;5048600;28;20045;-44
2023/01/08 07:54:22;;;;;;;11.52;3.08;;;;;;;5.67;81.50;97604.75;5040352;28;20033;-44
2023/01/08 07:56:49;;;;;;;15.77;2.78;;;;;;;5.65;81.54;97596.13;5046727;28;20248;-45
2023/01/08 07:59:16;;;;;;;17.83;4.10;;;;;;;5.62;81.75;97591.41;5054600;28;20052;-44
2023/01/08 08:01:42;;;;;;;13.73;2.92;;;;;;;5.60;81.98;97585.53;5045082;28;20507;-47
2023/01/08 08:04:09;;;;;;;10.10;2.00;;;;;;;5.59;82.06;97584.00;5032028;28;20050;-44
2023/01/08 08:06:36;;;;;;;10.35;2.65;;;;;;;5.58;81.83;97576.91;5035867;28;20077;-50
2023/01/08 08:09:03;;;;;;;11.95;2.03;;;;;;;5.56;82.19;97580.03;5046615;28;20502;-49
2023/01/08 08:11:30;;;;;;;8.30;1.95;;;;;;;5.54;82.05;97574.94;5039979;28;20521;-45
2023/01/08 08:13:57;;;;;;;8.23;1.65;;;;;;;5.53;82.04;97573.38;5045906;28;20079;-48
2023/01/08 08:16:24;;;;;;;15.63;2.10;;;;;;;5.53;82.12;97576.09;5042102;28;20060;-44
2023/01/08 08:18:51;;;;;;;9.73;1.83;;;;;;;5.53;82.29;97573.38;5042007;28;20128;-52
2023/01/08 08:21:17;;;;;;;10.75;2.35;;;;;;;5.52;82.41;97574.56;5028132;28;20073;-46
2023/01/08 08:23:44;;;;;;;11.57;3.42;;;;;;;5.53;82.24;97575.34;5036821;28;20045;-46
2023/01/08 08:26:11;;;;;;;7.90;1.52;;;;;;;5.51;82.41;97578.47;5046778;28;20483;-45
2023/01/08 08:28:38;;;;;;;10.57;1.77;;;;;;;5.51;82.38;97583.16;5047564;28;20047;-49
2023/01/08 08:31:05;;;;;;;8.30;2.00;;;;;;;5.50;82.40;97592.59;5048048;28;20399;-46
2023/01/08 08:33:32;;;;;;;11.05;1.88;;;;;;;5.50;82.60;97587.09;5048485;28;20508;-44
2023/01/08 08:35:59;;;;;;;17.60;3.05;;;;;;;5.49;82.52;97580.81;5049016;28;20102;-44
2023/01/08 08:38:25;;;;;;;15.45;3.50;;;;;;;5.48;82.83;97581.97;5048527;28;20049;-50
2023/01/08 08:40:52;;;;;;;18.45;4.18;;;;;;;5.47;82.61;97582.38;5048693;28;20553;-45
2023/01/08 08:43:19;;;;;;;10.45;1.65;;;;;;;5.46;82.71;97572.56;5048490;28;20063;-52
2023/01/08 08:45:46;;;;;;;15.40;2.05;;;;;;;5.45;82.81;97577.25;5048284;28;20041;-43
2023/01/08 08:48:12;;;;;;;9.52;2.00;;;;;;;5.45;82.88;97574.53;5048859;28;20053;-46
2023/01/08 08:50:39;;;;;;;11.30;1.50;;;;;;;5.44;nan;97575.72;5049016;28;20071;-44
2023/01/08 08:53:08;;;;;;;6.93;1.63;;;;;;;5.41;83.05;97565.50;5048888;28;20528;-45
2023/01/08 08:55:35;;;;;;;8.55;1.30;;;;;;;5.42;82.96;97572.59;5048357;28;20099;-51
2023/01/08 08:58:10;;;;;;;5.72;1.35;;;;;;;5.40;83.09;97565.91;5048180;28;20072;-46
2023/01/08 09:00:38;;;;;;;6.38;1.58;;;;;;;5.38;83.13;97563.53;5045702;28;20052;-51
2023/01/08 09:03:05;;;;;;;9.20;1.42;;;;;;;5.37;82.88;97556.50;5046478;28;20057;-44
2023/01/08 09:05:36;;;;;;;8.95;1.38;;;;;;;5.36;83.04;97557.66;5048024;28;20479;-46
2023/01/08 09:08:02;;;;;;;11.68;1.70;;;;;;;5.36;83.07;97562.38;5048250;28;20478;-47
2023/01/08 09:10:29;;;;;;;9.10;1.55;;;;;;;5.36;82.94;97574.13;5046903;28;20542;-45
2023/01/08 09:12:56;;;;;;;8.32;2.17;;;;;;;5.35;83.22;97563.53;5043064;28;20148;-50
2023/01/08 09:15:23;;;;;;;10.65;1.45;;;;;;;5.33;83.09;97565.88;5046148;28;20322;-44
2023/01/08 09:17:55;;;;;;;5.68;1.30;;;;;;;5.33;83.26;97569.41;5040055;28;20049;-45
2023/01/08 09:20:23;;;;;;;13.15;3.30;;;;;;;5.34;83.27;97571.00;5047409;28;20542;-44
2023/01/08 09:22:50;;;;;;;12.57;2.03;;;;;;;5.33;83.19;97571.34;5050604;28;20065;-52
2023/01/08 09:25:16;;;;;;;5.35;1.33;;;;;;;5.32;82.98;97570.56;5037314;28;20478;-49
2023/01/08 09:27:43;;;;;;;8.50;1.80;;;;;;;5.32;83.47;97576.06;5049988;28;20613;-46
2023/01/08 09:30:11;;;;;;;11.68;1.38;;;;;;;5.30;83.03;97572.13;5043474;28;20049;-50
2023/01/08 09:32:39;;;;;;;9.63;1.88;;;;;;;5.30;82.81;97570.19;5045662;28;20041;-49
2023/01/08 09:35:06;;;;;;;10.15;2.03;;;;;;;5.30;82.72;97553.72;5045705;28;20040;-45
2023/01/08 09:37:32;;;;;;;5.53;1.83;;;;;;;5.31;82.67;97568.22;5051130;28;20033;-50
2023/01/08 09:39:59;;;;;;;4.50;1.63;;;;;;;5.28;82.69;97563.50;5051490;28;20073;-45
2023/01/08 09:42:29;;;;;;;7.78;1.45;;;;;;;5.24;82.61;97555.25;5046834;28;20063;-45
2023/01/08 09:44:59;;;;;;;6.78;1.30;;;;;;;5.22;82.81;97552.13;5044153;28;20140;-48
2023/01/08 09:47:37;;;;;;;6.32;1.23;;;;;;;5.18;82.55;97554.09;5039695;28;20566;-44
2023/01/08 09:50:11;;;;;;;7.72;1.15;;;;;;;5.17;82.79;97549.75;5038206;28;20053;-44
2023/01/08 09:52:39;;;;;;;6.53;1.30;;;;;;;5.15;83.01;97560.34;5050450;28;20453;-47
2023/01/08 09:55:13;;;;;;;9.05;1.80;;;;;;;5.15;82.67;97556.81;5041672;28;20045;-52
2023/01/08 09:57:41;;;;;;;6.07;1.02;;;;;;;5.11;82.74;97553.28;5048540;28;20512;-50
2023/01/08 10:00:14;;;;;;;18.60;2.20;;;;;;;5.09;82.76;97545.44;5050208;28;20060;-50
2023/01/08 10:02:42;;;;;;;6.35;1.90;;;;;;;5.08;82.86;97551.31;5041597;28;20569;-50
2023/01/08 10:05:17;;;;;;;8.18;1.60;;;;;;;5.08;82.81;97559.53;5044238;28;20048;-44
2023/01/08 10:07:44;;;;;;;7.18;1.23;;;;;;;5.05;82.92;97550.13;5048476;28;20049;-48
2023/01/08 10:10:21;;;;;;;7.95;1.27;;;;;;;5.05;82.98;97552.88;5037190;28;20053;-47
2023/01/08 10:12:49;;;;;;;5.80;1.00;;;;;;;5.05;82.46;97555.63;5046700;28;20044;-47
2023/01/08 10:15:18;;;;;;;3.28;1.38;;;;;;;5.05;82.28;97544.66;5045536;28;20527;-43
2023/01/08 10:17:47;;;;;;;4.13;1.13;;;;;;;5.05;82.32;97558.34;5042807;28;20060;-45
2023/01/08 10:20:20;;;;;;;12.82;1.45;;;;;;;5.10;82.31;97540.75;5050167;28;20033;-43
2023/01/08 10:22:47;;;;;;;5.18;1.30;;;;;;;5.13;82.36;97553.69;5046541;28;20510;-46
2023/01/08 10:25:23;;;;;;;6.78;1.23;;;;;;;5.20;82.41;97542.72;5043929;28;20386;-44
2023/01/08 10:27:56;;;;;;;5.38;1.25;;;;;;;5.23;82.35;97539.22;5039394;28;20138;-45
2023/01/08 10:30:30;;;;;;;5.47;1.33;;;;;;;5.23;82.16;97542.75;5048892;28;20055;-47
2023/01/08 10:33:25;;;;;;;5.03;1.00;;;;;;;5.26;81.88;97538.44;5034836;28;20215;-49
2023/01/08 10:35:56;;;;;;;7.00;1.40;;;;;;;5.27;81.67;97540.78;5039153;28;20061;-53
2023/01/08 10:38:35;;;;;;;6.63;1.23;;;;;;;5.26;82.10;97541.97;5041435;28;20707;-51
2023/01/08 10:41:05;;;;;;;2.22;1.00;;;;;;;5.26;82.00;97547.47;5048359;28;20115;-44
2023/01/08 10:43:50;;;;;;;3.60;0.90;;;;;;;5.27;82.09;97534.53;5049129;28;20528;-45
2023/01/08 10:46:25;;;;;;;5.65;1.17;;;;;;;5.28;81.56;97530.59;5049427;28;20037;-47
2023/01/08 10:49:05;;;;;;;5.07;1.08;;;;;;;5.28;82.09;97534.13;5048727;28;20452;-46
2023/01/08 10:51:32;;;;;;;4.80;1.05;;;;;;;5.27;81.45;97540.78;5049211;28;20048;-48
2023/01/08 10:54:22;;;;;;;4.35;1.27;;;;;;;5.29;81.63;97543.16;5048677;28;20403;-46
2023/01/08 10:56:48;;;;;;;7.90;1.42;;;;;;;5.31;81.56;97538.06;5047609;28;20402;-44
2023/01/08 10:59:20;;;;;;;4.10;0.73;;;;;;;5.33;81.66;97544.72;5030854;28;20163;-45
2023/01/08 11:01:48;;;;;;;9.27;1.63;;;;;;;5.35;81.19;97542.38;5048488;28;20534;-42
2023/01/08 11:04:35;;;;;;;4.68;0.40;;;;;;;5.38;80.94;97535.31;5049286;28;20033;-43
2023/01/08 11:07:06;;;;;;;4.20;0.77;;;;;;;5.40;80.99;97533.75;5035590;28;20402;-44
2023/01/08 11:09:40;;;;;;;9.63;1.88;;;;;;;5.43;81.02;97543.97;5048553;28;20055;-48
2023/01/08 11:12:34;;;;;;;7.25;1.58;;;;;;;5.46;80.89;97539.66;5048659;28;20053;-44
2023/01/08 11:15:06;;;;;;;2.22;1.00;;;;;;;5.48;80.64;97546.31;5048414;28;20159;-45
2023/01/08 11:17:33;;;;;;;2.70;1.23;;;;;;;5.50;80.35;97544.00;5042587;28;20049;-48
2023/01/08 11:20:29;;;;;;;6.28;1.33;;;;;;;5.54;79.97;97538.50;5048395;28;20140;-44
2023/01/08 11:23:11;;;;;;;6.18;1.45;;;;;;;5.59;80.26;97551.81;5046743;28;20474;-43
2023/01/08 11:25:41;;;;;;;3.25;0.93;;;;;;;5.65;80.07;97535.75;5048450;28;20047;-44
2023/01/08 11:28:13;;;;;;;10.77;1.48;;;;;;;5.74;79.78;97541.66;5046524;28;20396;-44
2023/01/08 11:30:46;;;;;;;4.70;1.10;;;;;;;5.81;79.71;97542.44;5048569;28;20040;-45
2023/01/08 11:33:20;;;;;;;3.40;1.08;;;;;;;5.87;79.55;97542.88;5048033;28;20060;-48
2023/01/08 11:35:59;;;;;;;8.40;1.40;;;;;;;5.92;79.25;97531.50;5047974;28;20509;-52
2023/01/08 11:38:26;;;;;;;7.00;1.40;;;;;;;5.92;79.37;97535.03;5048387;28;20050;-45
2023/01/08 11:41:44;;;;;;;3.03;1.08;;;;;;;5.93;78.65;97533.06;5048378;28;20045;-45
2023/01/08 11:44:20;;;;;;;4.47;1.17;;;;;;;5.96;79.02;97526.78;5025917;28;20053;-51
2023/01/08 11:47:04;;;;;;;3.97;1.30;;;;;;;5.96;78.75;97527.56;5040039;28;20598;-52
2023/01/08 11:49:56;;;;;;;9.77;1.50;;;;;;;5.99;78.94;97520.50;5044890;28;20037;-44
2023/01/08 11:52:37;;;;;;;14.52;2.83;;;;;;;6.02;78.71;97514.22;5047977;28;20037;-44
2023/01/08 11:55:28;;;;;;;5.47;1.23;;;;;;;6.02;78.45;97506.78;5045852;28;20075;-47